createdAt,value
2022-11-06T00:00:42.887Z,5.14
2022-11-06T00:01:44.242Z,5.15
2022-11-06T00:02:45.974Z,5.11
2022-11-06T00:03:47.379Z,5.07
2022-11-06T00:04:48.674Z,5.02
2022-11-06T00:05:50.282Z,5.03
2022-11-06T00:06:51.567Z,5.05
2022-11-06T00:07:52.944Z,5.07
2022-11-06T00:08:54.635Z,5.12
2022-11-06T00:09:55.951Z,5.13
2022-11-06T00:10:57.665Z,5.14
2022-11-06T00:11:58.946Z,5.16
2022-11-06T00:13:00.272Z,5.21
2022-11-06T00:14:02.068Z,5.21
2022-11-06T00:15:03.486Z,5.21
2022-11-06T00:16:09.316Z,5.23
2022-11-06T00:17:10.635Z,5.22
2022-11-06T00:18:12.194Z,5.21
2022-11-06T00:19:14.132Z,5.21
2022-11-06T00:20:15.500Z,5.22
2022-11-06T00:21:19.298Z,5.22
2022-11-06T00:22:20.667Z,5.23
2022-11-06T00:23:21.989Z,5.22
2022-11-06T00:24:23.266Z,5.22
2022-11-06T00:25:24.603Z,5.23
2022-11-06T00:26:27.179Z,5.24
2022-11-06T00:27:28.784Z,5.22
2022-11-06T00:28:30.158Z,5.23
2022-11-06T00:29:31.452Z,5.24
2022-11-06T00:30:32.912Z,5.26
2022-11-06T00:31:36.002Z,5.26
2022-11-06T00:32:37.686Z,5.27
2022-11-06T00:33:39.208Z,5.28
2022-11-06T00:34:40.703Z,5.27
2022-11-06T00:35:42.035Z,5.25
2022-11-06T00:36:43.336Z,5.22
2022-11-06T00:37:44.626Z,5.19
2022-11-06T00:38:46.093Z,5.18
2022-11-06T00:39:47.378Z,5.16
2022-11-06T00:40:48.693Z,5.17
2022-11-06T00:41:50.008Z,5.16
2022-11-06T00:42:53.394Z,5.15
2022-11-06T00:43:59.170Z,5.13
2022-11-06T00:45:01.195Z,5.16
2022-11-06T00:46:03.443Z,5.16
2022-11-06T00:47:04.854Z,5.15
2022-11-06T00:48:06.275Z,5.13
2022-11-06T00:49:07.738Z,5.11
2022-11-06T00:50:09.197Z,5.08
2022-11-06T00:51:18.190Z,5.06
2022-11-06T00:52:19.478Z,5.05
2022-11-06T00:53:21.103Z,5.00
2022-11-06T00:54:22.541Z,5.02
2022-11-06T00:55:23.854Z,5.00
2022-11-06T00:56:25.583Z,5.01
2022-11-06T00:57:26.939Z,5.00
2022-11-06T00:58:28.232Z,5.01
2022-11-06T00:59:29.546Z,5.00
2022-11-06T01:00:30.928Z,5.00
2022-11-06T01:01:33.684Z,4.99
2022-11-06T01:02:35.139Z,5.00
2022-11-06T01:03:37.198Z,4.98
2022-11-06T01:04:38.491Z,4.99
2022-11-06T01:05:39.776Z,4.99
2022-11-06T01:06:42.406Z,4.99
2022-11-06T01:07:43.714Z,5.00
2022-11-06T01:08:45.611Z,4.99
2022-11-06T01:09:47.001Z,4.98
2022-11-06T01:10:48.278Z,4.99
2022-11-06T01:13:12.677Z,4.93
2022-11-06T01:14:15.079Z,4.91
2022-11-06T01:15:16.435Z,4.91
2022-11-06T01:16:18.112Z,4.90
2022-11-06T01:17:19.404Z,4.90
2022-11-06T01:18:20.707Z,4.87
2022-11-06T01:19:22.880Z,4.87
2022-11-06T01:20:24.186Z,4.84
2022-11-06T01:21:26.947Z,4.86
2022-11-06T01:22:28.256Z,4.85
2022-11-06T01:23:29.535Z,4.84
2022-11-06T01:24:31.046Z,4.84
2022-11-06T01:25:32.405Z,4.83
2022-11-06T01:26:38.535Z,4.81
2022-11-06T01:27:41.994Z,4.84
2022-11-06T01:28:43.303Z,4.84
2022-11-06T01:29:44.871Z,4.84
2022-11-06T01:30:46.360Z,4.85
2022-11-06T01:31:48.239Z,4.84
2022-11-06T01:32:49.541Z,4.83
2022-11-06T01:33:51.028Z,4.82
2022-11-06T01:34:52.435Z,4.80
2022-11-06T01:35:54.430Z,4.83
2022-11-06T01:36:55.733Z,4.81
2022-11-06T01:37:57.071Z,4.80
2022-11-06T01:39:00.622Z,4.81
2022-11-06T01:40:01.996Z,4.77
2022-11-06T01:41:03.328Z,4.77
2022-11-06T01:42:04.670Z,4.74
2022-11-06T01:43:11.159Z,4.76
2022-11-06T01:44:31.170Z,4.72
2022-11-06T01:45:38.482Z,4.69
2022-11-06T01:46:39.840Z,4.68
2022-11-06T01:47:41.164Z,4.64
2022-11-06T01:48:49.781Z,4.65
2022-11-06T01:49:53.050Z,4.66
2022-11-06T01:50:56.512Z,4.64
2022-11-06T01:52:00.395Z,4.61
2022-11-06T01:53:01.922Z,4.57
2022-11-06T01:54:04.786Z,4.60
2022-11-06T01:55:08.762Z,4.62
2022-11-06T01:56:12.141Z,4.60
2022-11-06T01:57:13.518Z,4.62
2022-11-06T01:58:16.480Z,4.62
2022-11-06T01:59:19.327Z,4.61
2022-11-06T02:00:20.732Z,4.62
2022-11-06T02:01:22.577Z,4.64
2022-11-06T02:02:24.295Z,4.63
2022-11-06T02:03:25.795Z,4.64
2022-11-06T02:04:31.802Z,4.65
2022-11-06T02:05:33.265Z,4.63
2022-11-06T02:06:34.824Z,4.64
2022-11-06T02:07:36.576Z,4.67
2022-11-06T02:08:37.914Z,4.66
2022-11-06T02:09:39.633Z,4.65
2022-11-06T02:10:41.615Z,4.65
2022-11-06T02:11:50.306Z,4.70
2022-11-06T02:12:58.561Z,4.69
2022-11-06T02:13:59.896Z,4.71
2022-11-06T02:15:12.706Z,4.70
2022-11-06T02:16:32.839Z,4.67
2022-11-06T02:17:36.777Z,4.67
2022-11-06T02:18:57.015Z,4.64
2022-11-06T02:19:58.484Z,4.63
2022-11-06T02:21:10.965Z,4.61
2022-11-06T02:22:20.970Z,4.60
2022-11-06T02:23:32.634Z,4.60
2022-11-06T02:24:47.321Z,4.57
2022-11-06T02:25:52.152Z,4.58
2022-11-06T02:27:08.357Z,4.59
2022-11-06T02:28:14.515Z,4.55
2022-11-06T02:29:45.496Z,4.54
2022-11-06T02:30:47.770Z,4.54
2022-11-06T02:31:51.407Z,4.52
2022-11-06T02:33:14.330Z,4.52
2022-11-06T02:34:17.501Z,4.54
2022-11-06T02:35:39.083Z,4.55
2022-11-06T02:36:43.400Z,4.53
2022-11-06T02:37:46.496Z,4.51
2022-11-06T02:38:50.210Z,4.49
2022-11-06T02:39:52.483Z,4.50
2022-11-06T02:40:55.810Z,4.47
2022-11-06T02:41:59.214Z,4.44
2022-11-06T02:43:03.446Z,4.43
2022-11-06T02:44:07.655Z,4.45
2022-11-06T02:45:11.086Z,4.44
2022-11-06T02:46:15.149Z,4.45
2022-11-06T02:47:18.599Z,4.46
2022-11-06T02:48:21.590Z,4.45
2022-11-06T02:49:22.838Z,4.43
2022-11-06T02:50:26.720Z,4.43
2022-11-06T02:51:30.303Z,4.41
2022-11-06T02:52:38.109Z,4.43
2022-11-06T02:53:41.688Z,4.43
2022-11-06T02:54:46.457Z,4.45
2022-11-06T02:55:49.994Z,4.45
2022-11-06T02:56:52.555Z,4.45
2022-11-06T02:57:57.058Z,4.44
2022-11-06T02:59:02.665Z,4.50
2022-11-06T03:00:06.293Z,4.51
2022-11-06T03:01:11.403Z,4.56
2022-11-06T03:02:18.218Z,4.54
2022-11-06T03:03:26.930Z,4.53
2022-11-06T03:04:38.938Z,4.50
2022-11-06T03:05:49.107Z,4.54
2022-11-06T03:06:59.894Z,4.54
2022-11-06T03:08:03.929Z,4.54
2022-11-06T03:09:25.503Z,4.52
2022-11-06T03:10:29.729Z,4.53
2022-11-06T03:11:32.696Z,4.52
2022-11-06T03:12:52.981Z,4.50
2022-11-06T03:13:58.261Z,4.48
2022-11-06T03:15:02.931Z,4.53
2022-11-06T03:16:27.418Z,4.51
2022-11-06T03:17:51.654Z,4.49
2022-11-06T03:19:14.004Z,4.47
2022-11-06T03:20:31.446Z,4.49
2022-11-06T03:21:52.085Z,4.46
2022-11-06T03:23:08.390Z,4.44
2022-11-06T03:24:15.111Z,4.43
2022-11-06T03:25:22.409Z,4.40
2022-11-06T03:26:47.436Z,4.38
2022-11-06T03:28:07.447Z,4.36
2022-11-06T03:29:17.522Z,4.35
2022-11-06T03:30:22.051Z,4.31
2022-11-06T03:31:46.396Z,4.31
2022-11-06T03:32:51.030Z,4.31
2022-11-06T03:33:54.466Z,4.27
2022-11-06T03:35:14.738Z,4.27
2022-11-06T03:36:18.823Z,4.23
2022-11-06T03:37:24.971Z,4.18
2022-11-06T03:38:52.531Z,4.17
2022-11-06T03:39:55.299Z,4.14
2022-11-06T03:41:01.851Z,4.14
2022-11-06T03:42:09.182Z,4.14
2022-11-06T03:43:12.327Z,4.13
2022-11-06T03:44:16.804Z,4.13
2022-11-06T03:45:23.871Z,4.10
2022-11-06T03:46:26.584Z,4.11
2022-11-06T03:47:36.630Z,4.07
2022-11-06T03:48:40.382Z,4.08
2022-11-06T03:49:45.918Z,4.06
2022-11-06T03:51:09.405Z,4.08
2022-11-06T03:52:16.462Z,4.07
2022-11-06T03:53:29.842Z,4.06
2022-11-06T03:54:35.662Z,4.07
2022-11-06T03:55:41.035Z,4.08
2022-11-06T03:56:57.382Z,4.07
2022-11-06T03:57:58.660Z,4.05
2022-11-06T03:59:02.508Z,4.09
2022-11-06T04:00:05.055Z,4.07
2022-11-06T04:01:14.425Z,4.06
2022-11-06T04:02:17.814Z,4.01
2022-11-06T04:03:28.765Z,4.02
2022-11-06T04:04:41.365Z,3.98
2022-11-06T04:05:46.153Z,3.95
2022-11-06T04:06:51.783Z,3.95
2022-11-06T04:07:55.595Z,3.95
2022-11-06T04:09:00.194Z,3.95
2022-11-06T04:10:03.329Z,3.93
2022-11-06T04:11:06.286Z,3.97
2022-11-06T04:12:08.430Z,3.94
2022-11-06T04:13:09.798Z,3.94
2022-11-06T04:14:13.339Z,3.93
2022-11-06T04:15:16.687Z,3.94
2022-11-06T04:16:18.245Z,3.92
2022-11-06T04:17:20.009Z,3.90
2022-11-06T04:18:21.302Z,3.90
2022-11-06T04:19:22.962Z,3.89
2022-11-06T04:20:28.035Z,3.84
2022-11-06T04:21:32.803Z,3.83
2022-11-06T04:22:37.110Z,3.83
2022-11-06T04:23:46.062Z,3.75
2022-11-06T04:25:04.428Z,3.76
2022-11-06T04:26:12.427Z,3.76
2022-11-06T04:27:28.258Z,3.82
2022-11-06T04:28:36.045Z,3.76
2022-11-06T04:29:56.244Z,3.72
2022-11-06T04:31:00.788Z,3.69
2022-11-06T04:32:16.250Z,3.66
2022-11-06T04:33:25.204Z,3.67
2022-11-06T04:34:35.626Z,3.65
2022-11-06T04:35:43.315Z,3.66
2022-11-06T04:36:50.340Z,3.63
2022-11-06T04:38:00.758Z,3.64
2022-11-06T04:39:11.998Z,3.60
2022-11-06T04:40:25.693Z,3.59
2022-11-06T04:41:30.673Z,3.59
2022-11-06T04:42:36.124Z,3.58
2022-11-06T04:43:43.907Z,3.58
2022-11-06T04:44:49.450Z,3.63
2022-11-06T04:45:52.580Z,3.60
2022-11-06T04:46:57.590Z,3.57
2022-11-06T04:47:59.725Z,3.53
2022-11-06T04:49:02.749Z,3.53
2022-11-06T04:50:05.865Z,3.51
2022-11-06T04:51:09.307Z,3.49
2022-11-06T04:52:15.832Z,3.50
2022-11-06T04:53:18.462Z,3.50
2022-11-06T04:54:20.076Z,3.48
2022-11-06T04:55:22.339Z,3.50
2022-11-06T04:56:29.169Z,3.46
2022-11-06T04:57:30.740Z,3.44
2022-11-06T04:58:32.026Z,3.54
2022-11-06T04:59:35.253Z,3.48
2022-11-06T05:00:37.602Z,3.50
2022-11-06T05:01:39.041Z,3.47
2022-11-06T05:02:40.611Z,3.45
2022-11-06T05:03:41.915Z,3.43
2022-11-06T05:04:43.284Z,3.42
2022-11-06T05:05:44.672Z,3.44
2022-11-06T05:06:45.957Z,3.41
2022-11-06T05:07:47.272Z,3.40
2022-11-06T05:08:48.676Z,3.39
2022-11-06T05:09:50.019Z,3.39
2022-11-06T05:10:51.337Z,3.38
2022-11-06T05:11:52.633Z,3.33
2022-11-06T05:12:53.905Z,3.31
2022-11-06T05:13:55.218Z,3.28
2022-11-06T05:14:56.559Z,3.28
2022-11-06T05:15:58.337Z,3.30
2022-11-06T05:16:59.958Z,3.29
2022-11-06T05:18:01.310Z,3.29
2022-11-06T05:19:03.116Z,3.29
2022-11-06T05:20:05.059Z,3.27
2022-11-06T05:21:06.351Z,3.25
2022-11-06T05:22:08.830Z,3.27
2022-11-06T05:23:10.150Z,3.27
2022-11-06T05:24:11.491Z,3.29
2022-11-06T05:25:12.806Z,3.28
2022-11-06T05:26:14.385Z,3.30
2022-11-06T05:27:15.691Z,3.30
2022-11-06T05:28:17.011Z,3.33
2022-11-06T05:29:18.315Z,3.37
2022-11-06T05:30:19.691Z,3.34
2022-11-06T05:31:21.053Z,3.31
2022-11-06T05:32:22.362Z,3.35
2022-11-06T05:33:23.756Z,3.34
2022-11-06T05:34:25.049Z,3.38
2022-11-06T05:35:26.415Z,3.35
2022-11-06T05:36:27.722Z,3.33
2022-11-06T05:37:29.002Z,3.36
2022-11-06T05:38:30.962Z,3.39
2022-11-06T05:39:32.261Z,3.36
2022-11-06T05:40:33.556Z,3.33
2022-11-06T05:41:34.901Z,3.33
2022-11-06T05:42:42.892Z,3.31
2022-11-06T05:43:44.273Z,3.31
2022-11-06T05:44:45.548Z,3.29
2022-11-06T05:45:46.830Z,3.28
2022-11-06T05:46:49.521Z,3.28
2022-11-06T05:47:51.087Z,3.27
2022-11-06T05:48:52.436Z,3.25
2022-11-06T05:49:53.738Z,3.26
2022-11-06T05:51:05.449Z,3.22
2022-11-06T05:52:06.774Z,3.22
2022-11-06T05:53:08.075Z,3.20
2022-11-06T05:54:09.419Z,3.22
2022-11-06T05:55:14.723Z,3.22
2022-11-06T05:56:16.915Z,3.22
2022-11-06T05:57:18.231Z,3.22
2022-11-06T05:58:19.519Z,3.27
2022-11-06T05:59:20.839Z,3.27
2022-11-06T06:00:22.146Z,3.23
2022-11-06T06:01:23.528Z,3.23
2022-11-06T06:02:25.044Z,3.22
2022-11-06T06:03:26.692Z,3.19
2022-11-06T06:04:27.998Z,3.18
2022-11-06T06:05:29.397Z,3.18
2022-11-06T06:06:30.751Z,3.17
2022-11-06T06:07:32.102Z,3.17
2022-11-06T06:08:33.433Z,3.18
2022-11-06T06:09:34.771Z,3.22
2022-11-06T06:10:40.062Z,3.24
2022-11-06T06:11:41.390Z,3.23
2022-11-06T06:12:42.675Z,3.20
2022-11-06T06:13:44.000Z,3.16
2022-11-06T06:14:49.373Z,3.14
2022-11-06T06:15:51.636Z,3.11
2022-11-06T06:16:52.958Z,3.07
2022-11-06T06:17:54.239Z,3.04
2022-11-06T06:18:55.545Z,3.06
2022-11-06T06:19:56.885Z,3.05
2022-11-06T06:20:58.420Z,3.08
2022-11-06T06:21:59.737Z,3.09
2022-11-06T06:23:01.176Z,3.06
2022-11-06T06:24:03.535Z,3.09
2022-11-06T06:25:08.865Z,3.11
2022-11-06T06:26:13.552Z,3.13
2022-11-06T06:27:14.867Z,3.12
2022-11-06T06:28:16.569Z,3.10
2022-11-06T06:29:18.018Z,3.07
2022-11-06T06:30:19.816Z,3.09
2022-11-06T06:31:21.309Z,3.07
2022-11-06T06:32:22.605Z,3.08
2022-11-06T06:33:24.063Z,3.05
2022-11-06T06:34:25.472Z,3.00
2022-11-06T06:35:26.759Z,3.00
2022-11-06T06:36:28.089Z,3.03
2022-11-06T06:37:29.450Z,2.99
2022-11-06T06:38:31.225Z,2.96
2022-11-06T06:39:32.523Z,2.99
2022-11-06T06:40:33.851Z,3.00
2022-11-06T06:41:35.134Z,3.00
2022-11-06T06:42:36.415Z,3.01
2022-11-06T06:43:37.792Z,3.03
2022-11-06T06:44:39.113Z,3.01
2022-11-06T06:45:40.451Z,3.04
2022-11-06T06:46:42.144Z,3.05
2022-11-06T06:47:43.471Z,3.07
2022-11-06T06:48:44.811Z,3.10
2022-11-06T06:49:46.150Z,3.13
2022-11-06T06:50:47.429Z,3.10
2022-11-06T06:51:49.423Z,3.09
2022-11-06T06:52:54.744Z,3.06
2022-11-06T06:53:56.027Z,3.06
2022-11-06T06:54:57.331Z,3.05
2022-11-06T06:55:59.353Z,3.07
2022-11-06T06:57:00.644Z,3.07
2022-11-06T06:58:02.105Z,3.11
2022-11-06T06:59:03.432Z,3.11
2022-11-06T07:00:04.983Z,3.11
2022-11-06T07:01:06.424Z,3.10
2022-11-06T07:02:08.978Z,3.14
2022-11-06T07:03:10.399Z,3.17
2022-11-06T07:04:11.731Z,3.14
2022-11-06T07:05:13.027Z,3.16
2022-11-06T07:06:14.426Z,3.16
2022-11-06T07:07:15.731Z,3.16
2022-11-06T07:08:17.124Z,3.18
2022-11-06T07:09:18.461Z,3.18
2022-11-06T07:10:19.770Z,3.19
2022-11-06T07:11:21.434Z,3.18
2022-11-06T07:12:22.781Z,3.19
2022-11-06T07:13:24.087Z,3.25
2022-11-06T07:14:25.399Z,3.27
2022-11-06T07:15:26.715Z,3.28
2022-11-06T07:16:28.059Z,3.29
2022-11-06T07:17:29.431Z,3.28
2022-11-06T07:18:30.745Z,3.30
2022-11-06T07:19:32.066Z,3.33
2022-11-06T07:20:34.330Z,3.32
2022-11-06T07:21:35.723Z,3.33
2022-11-06T07:22:37.834Z,3.34
2022-11-06T07:23:39.694Z,3.34
2022-11-06T07:24:41.059Z,3.36
2022-11-06T07:25:42.394Z,3.39
2022-11-06T07:26:43.736Z,3.41
2022-11-06T07:27:45.035Z,3.42
2022-11-06T07:28:46.403Z,3.42
2022-11-06T07:29:47.905Z,3.45
2022-11-06T07:30:49.331Z,3.45
2022-11-06T07:31:50.614Z,3.46
2022-11-06T07:32:52.007Z,3.47
2022-11-06T07:33:53.319Z,3.49
2022-11-06T07:34:54.618Z,3.51
2022-11-06T07:35:55.975Z,3.56
2022-11-06T07:36:57.263Z,3.60
2022-11-06T07:37:58.563Z,3.57
2022-11-06T07:38:59.865Z,3.57
2022-11-06T07:40:01.272Z,3.56
2022-11-06T07:41:06.700Z,3.58
2022-11-06T07:42:08.261Z,3.54
2022-11-06T07:43:11.650Z,3.55
2022-11-06T07:44:13.021Z,3.57
2022-11-06T07:45:14.365Z,3.62
2022-11-06T07:46:15.708Z,3.65
2022-11-06T07:47:16.990Z,3.67
2022-11-06T07:48:18.327Z,3.68
2022-11-06T07:49:19.651Z,3.70
2022-11-06T07:50:20.932Z,3.72
2022-11-06T07:51:22.330Z,3.75
2022-11-06T07:52:23.759Z,3.79
2022-11-06T07:53:25.137Z,3.79
2022-11-06T07:54:26.452Z,3.77
2022-11-06T07:55:27.794Z,3.80
2022-11-06T07:56:29.114Z,3.79
2022-11-06T07:57:30.415Z,3.81
2022-11-06T07:58:33.018Z,3.83
2022-11-06T07:59:34.539Z,3.85
2022-11-06T08:00:35.890Z,3.86
2022-11-06T08:01:37.409Z,3.90
2022-11-06T08:02:38.870Z,3.95
2022-11-06T08:03:40.310Z,3.97
2022-11-06T08:04:41.607Z,4.07
2022-11-06T08:05:42.998Z,4.02
2022-11-06T08:06:44.353Z,4.01
2022-11-06T08:07:45.683Z,4.05
2022-11-06T08:08:47.036Z,4.03
2022-11-06T08:09:48.313Z,4.05
2022-11-06T08:10:49.636Z,4.10
2022-11-06T08:11:51.079Z,4.14
2022-11-06T08:12:52.398Z,4.16
2022-11-06T08:13:53.705Z,4.18
2022-11-06T08:14:54.981Z,4.16
2022-11-06T08:15:56.404Z,4.17
2022-11-06T08:16:57.699Z,4.24
2022-11-06T08:17:59.367Z,4.21
2022-11-06T08:19:00.676Z,4.22
2022-11-06T08:20:02.071Z,4.22
2022-11-06T08:21:03.962Z,4.28
2022-11-06T08:22:05.464Z,4.29
2022-11-06T08:23:08.019Z,4.28
2022-11-06T08:24:09.398Z,4.32
2022-11-06T08:25:10.823Z,4.36
2022-11-06T08:26:14.561Z,4.33
2022-11-06T08:27:15.873Z,4.34
2022-11-06T08:28:17.171Z,4.40
2022-11-06T08:29:18.479Z,4.42
2022-11-06T08:30:19.802Z,4.44
2022-11-06T08:31:21.153Z,4.45
2022-11-06T08:32:22.493Z,4.51
2022-11-06T08:33:24.659Z,4.54
2022-11-06T08:34:26.198Z,4.59
2022-11-06T08:35:27.580Z,4.66
2022-11-06T08:36:28.899Z,4.70
2022-11-06T08:37:30.211Z,4.71
2022-11-06T08:38:31.575Z,4.73
2022-11-06T08:39:32.871Z,4.79
2022-11-06T08:40:36.292Z,4.78
2022-11-06T08:41:38.481Z,4.82
2022-11-06T08:42:39.768Z,4.86
2022-11-06T08:43:41.337Z,4.92
2022-11-06T08:44:42.612Z,4.93
2022-11-06T08:45:43.950Z,4.97
2022-11-06T08:46:49.370Z,5.01
2022-11-06T08:47:53.128Z,5.02
2022-11-06T08:48:54.445Z,5.09
2022-11-06T08:49:55.718Z,5.09
2022-11-06T08:50:57.028Z,5.12
2022-11-06T08:51:58.321Z,5.16
2022-11-06T08:53:00.224Z,5.21
2022-11-06T08:54:01.596Z,5.23
2022-11-06T08:55:03.051Z,5.27
2022-11-06T08:56:04.902Z,5.29
2022-11-06T08:57:06.207Z,5.38
2022-11-06T08:58:07.628Z,5.39
2022-11-06T08:59:08.941Z,5.40
2022-11-06T09:00:10.625Z,5.44
2022-11-06T09:01:11.971Z,5.46
2022-11-06T09:02:13.984Z,5.47
2022-11-06T09:03:16.922Z,5.48
2022-11-06T09:04:18.543Z,5.50
2022-11-06T09:05:19.855Z,5.52
2022-11-06T09:06:21.175Z,5.54
2022-11-06T09:07:22.477Z,5.55
2022-11-06T09:08:23.798Z,5.55
2022-11-06T09:09:25.184Z,5.58
2022-11-06T09:10:27.389Z,5.62
2022-11-06T09:11:28.907Z,5.63
2022-11-06T09:12:30.265Z,5.63
2022-11-06T09:13:31.565Z,5.67
2022-11-06T09:14:33.366Z,5.69
2022-11-06T09:15:34.770Z,5.72
2022-11-06T09:16:36.096Z,5.76
2022-11-06T09:17:44.297Z,5.80
2022-11-06T09:18:45.611Z,5.81
2022-11-06T09:19:46.925Z,5.86
2022-11-06T09:20:48.241Z,5.86
2022-11-06T09:21:54.530Z,5.88
2022-11-06T09:23:00.224Z,5.88
2022-11-06T09:24:01.554Z,5.92
2022-11-06T09:25:04.338Z,5.96
2022-11-06T09:26:05.993Z,5.98
2022-11-06T09:27:07.321Z,6.01
2022-11-06T09:28:08.643Z,6.05
2022-11-06T09:29:09.965Z,6.08
2022-11-06T09:30:12.324Z,6.11
2022-11-06T09:31:13.650Z,6.15
2022-11-06T09:32:14.993Z,6.18
2022-11-06T09:33:16.698Z,6.25
2022-11-06T09:34:18.266Z,6.28
2022-11-06T09:35:20.967Z,6.32
2022-11-06T09:36:22.440Z,6.33
2022-11-06T09:37:23.777Z,6.38
2022-11-06T09:38:25.129Z,6.45
2022-11-06T09:39:26.452Z,6.50
2022-11-06T09:40:33.870Z,6.52
2022-11-06T09:41:58.038Z,6.57
2022-11-06T09:43:43.108Z,6.60
2022-11-06T09:44:43.627Z,6.67
2022-11-06T09:45:48.006Z,6.73
2022-11-06T09:46:53.490Z,6.75
2022-11-06T09:47:59.216Z,6.78
2022-11-06T09:49:19.323Z,6.85
2022-11-06T09:50:23.850Z,6.91
2022-11-06T09:51:34.359Z,6.96
2022-11-06T09:52:39.073Z,6.99
2022-11-06T09:53:56.967Z,7.07
2022-11-06T09:55:18.855Z,7.13
2022-11-06T09:56:20.925Z,7.24
2022-11-06T09:57:29.252Z,7.27
2022-11-06T09:58:33.816Z,7.23
2022-11-06T09:59:36.973Z,7.24
2022-11-06T10:00:38.759Z,7.26
2022-11-06T10:01:43.562Z,7.30
2022-11-06T10:02:49.894Z,7.34
2022-11-06T10:03:54.802Z,7.44
2022-11-06T10:05:13.947Z,7.51
2022-11-06T10:06:15.368Z,7.56
2022-11-06T10:07:23.305Z,7.63
2022-11-06T10:08:26.331Z,7.69
2022-11-06T10:09:28.253Z,7.73
2022-11-06T10:10:45.273Z,7.78
2022-11-06T10:12:07.879Z,7.86
2022-11-06T10:13:28.087Z,7.90
2022-11-06T10:14:50.976Z,7.92
2022-11-06T10:16:00.692Z,7.93
2022-11-06T10:17:20.782Z,7.94
2022-11-06T10:18:22.158Z,7.97
2022-11-06T10:19:32.373Z,7.97
2022-11-06T10:20:53.930Z,7.98
2022-11-06T10:22:01.382Z,7.99
2022-11-06T10:23:02.682Z,8.03
2022-11-06T10:24:11.447Z,8.07
2022-11-06T10:25:19.688Z,8.11
2022-11-06T10:26:28.650Z,8.15
2022-11-06T10:27:39.450Z,8.19
2022-11-06T10:28:40.721Z,8.23
2022-11-06T10:29:41.996Z,8.26
2022-11-06T10:30:49.319Z,8.29
2022-11-06T10:32:09.325Z,8.30
2022-11-06T10:33:29.539Z,8.31
2022-11-06T10:34:43.560Z,8.32
2022-11-06T10:35:54.584Z,8.33
2022-11-06T10:37:00.690Z,8.34
2022-11-06T10:38:37.544Z,8.36
2022-11-06T10:39:39.554Z,8.39
2022-11-06T10:40:43.490Z,8.41
2022-11-06T10:41:49.135Z,8.44
2022-11-06T10:43:22.873Z,8.43
2022-11-06T10:44:28.982Z,8.42
2022-11-06T10:45:30.320Z,8.44
2022-11-06T10:46:43.519Z,8.46
2022-11-06T10:47:50.946Z,8.45
2022-11-06T10:49:02.834Z,8.47
2022-11-06T10:50:05.820Z,8.48
2022-11-06T10:51:07.162Z,8.50
2022-11-06T10:52:08.504Z,8.55
2022-11-06T10:53:24.599Z,8.59
2022-11-06T10:54:41.126Z,8.64
2022-11-06T10:55:58.767Z,8.70
2022-11-06T10:57:05.944Z,8.77
2022-11-06T10:58:07.323Z,8.86
2022-11-06T10:59:08.781Z,8.87
2022-11-06T11:00:13.683Z,8.89
2022-11-06T11:01:15.191Z,8.86
2022-11-06T11:02:36.838Z,8.87
2022-11-06T11:03:42.590Z,8.87
2022-11-06T11:04:43.909Z,8.88
2022-11-06T11:05:45.365Z,8.91
2022-11-06T11:06:46.692Z,8.96
2022-11-06T11:07:49.088Z,9.02
2022-11-06T11:08:51.331Z,9.06
2022-11-06T11:09:52.664Z,9.12
2022-11-06T11:11:04.779Z,9.09
2022-11-06T11:12:19.078Z,9.12
2022-11-06T11:13:20.589Z,9.12
2022-11-06T11:14:23.688Z,9.13
2022-11-06T11:15:26.395Z,9.19
2022-11-06T11:16:33.618Z,9.24
2022-11-06T11:17:34.964Z,9.23
2022-11-06T11:18:36.316Z,9.30
2022-11-06T11:19:39.030Z,9.33
2022-11-06T11:20:41.551Z,9.36
2022-11-06T11:22:18.540Z,9.35
2022-11-06T11:23:21.482Z,9.36
2022-11-06T11:24:22.874Z,9.39
2022-11-06T11:25:24.939Z,9.48
2022-11-06T11:26:29.847Z,9.53
2022-11-06T11:27:38.158Z,9.55
2022-11-06T11:28:40.375Z,9.58
2022-11-06T11:29:44.060Z,9.58
2022-11-06T11:30:50.583Z,9.58
2022-11-06T11:31:59.695Z,9.58
2022-11-06T11:33:01.027Z,9.60
2022-11-06T11:34:07.187Z,9.64
2022-11-06T11:35:10.360Z,9.63
2022-11-06T11:36:11.660Z,9.66
2022-11-06T11:37:33.235Z,9.67
2022-11-06T11:38:39.193Z,9.67
2022-11-06T11:39:43.454Z,9.68
2022-11-06T11:40:44.804Z,9.69
2022-11-06T11:41:46.254Z,9.71
2022-11-06T11:42:47.699Z,9.75
2022-11-06T11:44:05.940Z,9.78
2022-11-06T11:45:10.253Z,9.83
2022-11-06T11:46:11.818Z,9.86
2022-11-06T11:47:23.363Z,9.88
2022-11-06T11:48:24.741Z,9.93
2022-11-06T11:49:26.097Z,9.92
2022-11-06T11:50:27.588Z,9.95
2022-11-06T11:51:43.432Z,10.00
2022-11-06T11:52:45.995Z,10.06
2022-11-06T11:53:47.368Z,10.10
2022-11-06T11:54:51.333Z,10.08
2022-11-06T11:55:52.663Z,10.10
2022-11-06T11:57:07.343Z,10.08
2022-11-06T11:58:20.314Z,10.06
2022-11-06T11:59:26.553Z,10.10
2022-11-06T12:00:28.680Z,10.15
2022-11-06T12:01:38.311Z,10.14
2022-11-06T12:02:47.828Z,10.16
2022-11-06T12:03:50.138Z,10.17
2022-11-06T12:04:53.654Z,10.18
2022-11-06T12:06:03.942Z,10.20
2022-11-06T12:07:06.994Z,10.22
2022-11-06T12:08:14.236Z,10.23
2022-11-06T12:09:15.731Z,10.24
2022-11-06T12:10:23.248Z,10.25
2022-11-06T12:11:26.030Z,10.26
2022-11-06T12:12:32.341Z,10.29
2022-11-06T12:13:33.722Z,10.29
2022-11-06T12:14:36.704Z,10.31
2022-11-06T12:15:46.057Z,10.31
2022-11-06T12:16:51.782Z,10.35
2022-11-06T12:17:55.038Z,10.35
2022-11-06T12:18:59.041Z,10.32
2022-11-06T12:20:03.284Z,10.32
2022-11-06T12:21:12.282Z,10.33
2022-11-06T12:22:17.207Z,10.39
2022-11-06T12:23:37.341Z,10.38
2022-11-06T12:24:47.372Z,10.37
2022-11-06T12:25:56.486Z,10.41
2022-11-06T12:27:00.728Z,10.42
2022-11-06T12:28:02.939Z,10.41
2022-11-06T12:29:11.345Z,10.46
2022-11-06T12:30:14.992Z,10.47
2022-11-06T12:31:37.222Z,10.47
2022-11-06T12:32:43.665Z,10.55
2022-11-06T12:34:05.825Z,10.55
2022-11-06T12:35:17.007Z,10.58
2022-11-06T12:36:19.021Z,10.60
2022-11-06T12:37:29.531Z,10.61
2022-11-06T12:38:36.731Z,10.64
2022-11-06T12:39:39.061Z,10.70
2022-11-06T12:40:42.051Z,10.69
2022-11-06T12:41:46.183Z,10.77
2022-11-06T12:42:53.727Z,10.78
2022-11-06T12:43:55.570Z,10.76
2022-11-06T12:44:57.015Z,10.72
2022-11-06T12:46:13.817Z,10.76
2022-11-06T12:47:20.530Z,10.83
2022-11-06T12:48:44.713Z,10.77
2022-11-06T12:49:46.049Z,10.72
2022-11-06T12:50:57.216Z,10.65
2022-11-06T12:52:17.493Z,10.60
2022-11-06T12:53:18.826Z,10.58
2022-11-06T12:54:20.337Z,10.54
2022-11-06T12:55:29.070Z,10.51
2022-11-06T12:56:40.284Z,10.50
2022-11-06T12:57:47.544Z,10.57
2022-11-06T12:59:20.870Z,10.56
2022-11-06T13:00:26.066Z,10.50
2022-11-06T13:01:31.664Z,10.46
2022-11-06T13:02:47.922Z,10.45
2022-11-06T13:03:59.746Z,10.45
2022-11-06T13:05:19.814Z,10.47
2022-11-06T13:06:47.524Z,10.50
2022-11-06T13:08:02.202Z,10.49
2022-11-06T13:09:16.016Z,10.52
2022-11-06T13:10:32.402Z,10.52
2022-11-06T13:11:33.683Z,10.53
2022-11-06T13:12:34.978Z,10.55
2022-11-06T13:13:39.325Z,10.57
2022-11-06T13:14:47.342Z,10.59
2022-11-06T13:15:48.662Z,10.61
2022-11-06T13:16:49.926Z,10.64
2022-11-06T13:18:09.882Z,10.68
2022-11-06T13:19:17.189Z,10.76
2022-11-06T13:20:18.501Z,10.83
2022-11-06T13:21:36.410Z,10.86
2022-11-06T13:23:00.410Z,10.85
2022-11-06T13:24:10.402Z,10.88
2022-11-06T13:25:22.270Z,10.90
2022-11-06T13:26:43.818Z,10.95
2022-11-06T13:27:45.102Z,10.92
2022-11-06T13:28:54.982Z,10.91
2022-11-06T13:30:00.519Z,10.88
2022-11-06T13:31:03.327Z,10.84
2022-11-06T13:32:10.186Z,10.87
2022-11-06T13:33:22.937Z,10.86
2022-11-06T13:34:34.485Z,10.87
2022-11-06T13:35:37.691Z,10.88
2022-11-06T13:36:39.138Z,10.86
2022-11-06T13:37:42.623Z,10.89
2022-11-06T13:38:52.071Z,10.88
2022-11-06T13:40:01.919Z,10.88
2022-11-06T13:41:06.465Z,10.88
2022-11-06T13:42:20.446Z,10.88
2022-11-06T13:43:24.018Z,10.88
2022-11-06T13:44:25.570Z,10.89
2022-11-06T13:45:28.189Z,10.90
2022-11-06T13:46:49.017Z,10.91
2022-11-06T13:48:02.483Z,10.95
2022-11-06T13:49:12.812Z,10.95
2022-11-06T13:50:31.516Z,10.88
2022-11-06T13:51:38.797Z,10.89
2022-11-06T13:52:45.305Z,10.90
2022-11-06T13:53:59.381Z,10.88
2022-11-06T13:55:14.729Z,10.88
2022-11-06T13:56:34.542Z,10.95
2022-11-06T13:57:54.561Z,10.98
2022-11-06T13:58:55.849Z,10.94
2022-11-06T14:00:06.012Z,10.94
2022-11-06T14:01:13.452Z,10.93
2022-11-06T14:02:21.051Z,10.90
2022-11-06T14:03:40.611Z,10.89
2022-11-06T14:04:57.132Z,10.88
2022-11-06T14:06:01.457Z,10.87
2022-11-06T14:07:04.673Z,10.86
2022-11-06T14:08:07.592Z,10.88
2022-11-06T14:09:22.477Z,10.91
2022-11-06T14:10:26.922Z,10.95
2022-11-06T14:11:30.715Z,10.97
2022-11-06T14:12:32.131Z,11.01
2022-11-06T14:13:34.734Z,10.97
2022-11-06T14:14:36.069Z,10.94
2022-11-06T14:15:39.333Z,10.94
2022-11-06T14:16:41.771Z,10.89
2022-11-06T14:17:53.905Z,10.87
2022-11-06T14:19:00.554Z,10.86
2022-11-06T14:20:04.198Z,10.82
2022-11-06T14:21:24.093Z,10.80
2022-11-06T14:22:31.044Z,10.76
2022-11-06T14:23:52.629Z,10.74